createdAt,value
2022-12-06T00:01:35.653Z,100405.91
2022-12-06T00:04:09.591Z,100403.84
2022-12-06T00:06:41.564Z,100408.00
2022-12-06T00:09:10.301Z,100407.69
2022-12-06T00:11:38.828Z,100406.88
2022-12-06T00:14:09.252Z,100411.81
2022-12-06T00:16:38.430Z,100401.94
2022-12-06T00:19:08.684Z,100408.97
2022-12-06T00:21:38.361Z,100409.78
2022-12-06T00:24:10.673Z,100411.31
2022-12-06T00:26:42.362Z,100405.75
2022-12-06T00:29:14.513Z,100413.16
2022-12-06T00:31:42.989Z,100405.63
2022-12-06T00:34:13.027Z,100409.38
2022-12-06T00:36:43.287Z,100406.66
2022-12-06T00:39:14.230Z,100407.72
2022-12-06T00:41:44.069Z,100405.84
2022-12-06T00:44:12.941Z,100401.50
2022-12-06T00:46:42.040Z,100403.66
2022-12-06T00:49:12.559Z,100412.03
2022-12-06T00:51:41.972Z,100409.56
2022-12-06T00:54:14.471Z,100406.50
2022-12-06T00:56:43.146Z,100408.50
2022-12-06T00:59:12.513Z,100404.41
2022-12-06T01:01:42.513Z,100407.06
2022-12-06T01:04:12.201Z,100405.47
2022-12-06T01:06:40.480Z,100407.66
2022-12-06T01:09:11.439Z,100399.19
2022-12-06T01:11:40.595Z,100401.53
2022-12-06T01:14:09.299Z,100396.53
2022-12-06T01:16:37.825Z,100404.44
2022-12-06T01:19:08.001Z,100398.03
2022-12-06T01:21:37.828Z,100401.59
2022-12-06T01:24:06.879Z,100410.09
2022-12-06T01:26:36.730Z,100407.84
2022-12-06T01:29:05.822Z,100401.78
2022-12-06T01:31:38.827Z,100408.06
2022-12-06T01:34:14.514Z,100407.00
2022-12-06T01:36:45.344Z,100404.44
2022-12-06T01:39:13.640Z,100406.16
2022-12-06T01:41:42.544Z,100406.16
2022-12-06T01:44:43.678Z,100401.69
2022-12-06T01:47:24.480Z,100398.78
2022-12-06T01:49:58.045Z,100408.09
2022-12-06T01:52:34.009Z,100398.63
2022-12-06T01:55:03.743Z,100397.34
2022-12-06T01:57:32.571Z,100398.13
2022-12-06T02:00:01.649Z,100395.38
2022-12-06T02:02:39.463Z,100388.66
2022-12-06T02:05:09.719Z,100389.97
2022-12-06T02:07:41.288Z,100385.06
2022-12-06T02:10:10.883Z,100386.81
2022-12-06T02:12:40.186Z,100396.84
2022-12-06T02:15:10.654Z,100390.06
2022-12-06T02:17:47.730Z,100387.16
2022-12-06T02:20:28.116Z,100387.31
2022-12-06T02:23:38.844Z,100386.13
2022-12-06T02:26:25.903Z,100385.81
2022-12-06T02:29:34.784Z,100386.88
2022-12-06T02:32:09.661Z,100379.41
2022-12-06T02:34:46.312Z,100388.88
2022-12-06T02:37:20.353Z,100387.47
2022-12-06T02:39:54.066Z,100378.75
2022-12-06T02:42:27.274Z,100376.56
2022-12-06T02:44:59.736Z,100374.78
2022-12-06T02:47:35.171Z,100373.44
2022-12-06T02:50:10.124Z,100377.91
2022-12-06T02:52:44.471Z,100369.91
2022-12-06T02:55:14.463Z,100377.00
2022-12-06T02:57:48.427Z,100372.84
2022-12-06T03:00:40.221Z,100368.31
2022-12-06T03:03:43.270Z,100368.78
2022-12-06T03:06:43.451Z,100370.84
2022-12-06T03:09:37.692Z,100377.91
2022-12-06T03:12:15.083Z,100370.72
2022-12-06T03:15:01.900Z,100375.66
2022-12-06T03:17:38.751Z,100372.84
2022-12-06T03:20:16.095Z,100370.72
2022-12-06T03:22:50.141Z,100363.25
2022-12-06T03:25:19.003Z,100368.06
2022-12-06T03:27:50.776Z,100375.59
2022-12-06T03:30:19.621Z,100368.34
2022-12-06T03:32:51.057Z,100364.19
2022-12-06T03:35:25.814Z,100362.94
2022-12-06T03:38:04.295Z,100367.25
2022-12-06T03:40:36.710Z,100359.84
2022-12-06T03:43:06.328Z,100362.00
2022-12-06T03:45:45.675Z,100363.88
2022-12-06T03:48:17.806Z,100361.88
2022-12-06T03:50:58.333Z,100357.03
2022-12-06T03:53:27.400Z,100351.81
2022-12-06T03:55:56.678Z,100360.41
2022-12-06T03:58:25.976Z,100359.13
2022-12-06T04:00:55.478Z,100358.97
2022-12-06T04:03:23.925Z,100355.25
2022-12-06T04:05:53.796Z,100360.53
2022-12-06T04:08:22.134Z,100366.41
2022-12-06T04:10:50.767Z,100359.25
2022-12-06T04:13:19.836Z,100365.19
2022-12-06T04:15:48.940Z,100359.38
2022-12-06T04:18:18.731Z,100356.22
2022-12-06T04:21:07.490Z,100357.59
2022-12-06T04:23:39.847Z,100357.84
2022-12-06T04:26:11.854Z,100357.28
2022-12-06T04:28:57.701Z,100361.19
2022-12-06T04:31:43.909Z,100360.38
2022-12-06T04:34:29.910Z,100366.38
2022-12-06T04:37:15.882Z,100374.97
2022-12-06T04:39:45.924Z,100377.19
2022-12-06T04:42:32.653Z,100370.38
2022-12-06T04:45:01.134Z,100376.00
2022-12-06T04:47:29.398Z,100366.97
2022-12-06T04:49:58.140Z,100379.19
2022-12-06T04:52:30.114Z,100373.41
2022-12-06T04:55:03.026Z,100376.88
2022-12-06T04:57:31.708Z,100373.25
2022-12-06T05:00:00.776Z,100380.09
2022-12-06T05:02:29.383Z,100376.06
2022-12-06T05:04:57.594Z,100377.25
2022-12-06T05:07:25.874Z,100377.06
2022-12-06T05:09:54.122Z,100376.41
2022-12-06T05:12:23.768Z,100373.75
2022-12-06T05:14:52.297Z,100379.06
2022-12-06T05:17:20.449Z,100368.22
2022-12-06T05:19:48.668Z,100369.16
2022-12-06T05:22:17.121Z,100366.75
2022-12-06T05:24:45.529Z,100369.78
2022-12-06T05:27:15.093Z,100371.41
2022-12-06T05:29:45.722Z,100377.41
2022-12-06T05:32:14.319Z,100381.09
2022-12-06T05:34:42.803Z,100374.78
2022-12-06T05:37:11.005Z,100375.72
2022-12-06T05:39:39.601Z,100377.06
2022-12-06T05:42:08.034Z,100382.22
2022-12-06T05:44:37.158Z,100376.06
2022-12-06T05:47:07.130Z,100385.56
2022-12-06T05:49:35.638Z,100377.69
2022-12-06T05:52:04.994Z,100374.75
2022-12-06T05:54:33.236Z,100370.56
2022-12-06T05:57:01.750Z,100374.59
2022-12-06T05:59:30.229Z,100376.50
2022-12-06T06:01:59.045Z,100373.94
2022-12-06T06:04:28.834Z,100377.34
2022-12-06T06:06:57.953Z,100377.78
2022-12-06T06:09:27.477Z,100369.88
2022-12-06T06:11:56.217Z,100372.91
2022-12-06T06:14:24.753Z,100372.22
2022-12-06T06:16:53.461Z,100373.97
2022-12-06T06:19:24.172Z,100364.50
2022-12-06T06:21:54.058Z,100379.28
2022-12-06T06:24:23.876Z,100383.31
2022-12-06T06:26:52.433Z,100382.19
2022-12-06T06:29:20.926Z,100384.03
2022-12-06T06:31:49.207Z,100385.69
2022-12-06T06:34:17.486Z,100387.81
2022-12-06T06:36:46.257Z,100388.72
2022-12-06T06:39:16.011Z,100378.38
2022-12-06T06:41:44.304Z,100383.13
2022-12-06T06:44:12.738Z,100377.03
2022-12-06T06:46:41.373Z,100384.28
2022-12-06T06:49:09.556Z,100381.66
2022-12-06T06:51:38.211Z,100385.72
2022-12-06T06:54:06.753Z,100379.50
2022-12-06T06:56:36.869Z,100374.09
2022-12-06T06:59:05.737Z,100381.91
2022-12-06T07:01:34.035Z,100369.25
2022-12-06T07:04:02.821Z,100371.31
2022-12-06T07:06:31.223Z,100371.59
2022-12-06T07:08:59.775Z,100371.22
2022-12-06T07:11:27.909Z,100368.75
2022-12-06T07:13:57.656Z,100367.44
2022-12-06T07:16:25.943Z,100368.84
2022-12-06T07:18:54.527Z,100360.63
2022-12-06T07:21:23.317Z,100373.34
2022-12-06T07:23:52.032Z,100369.25
2022-12-06T07:26:22.986Z,100363.00
2022-12-06T07:28:52.601Z,100362.78
2022-12-06T07:31:25.443Z,100368.91
2022-12-06T07:33:55.786Z,100367.44
2022-12-06T07:36:25.093Z,100370.94
2022-12-06T07:38:57.084Z,100371.22
2022-12-06T07:41:46.372Z,100373.44
2022-12-06T07:44:53.454Z,100372.91
2022-12-06T07:47:26.468Z,100373.91
2022-12-06T07:49:54.796Z,100374.03
2022-12-06T07:52:23.140Z,100373.16
2022-12-06T07:54:51.421Z,100368.47
2022-12-06T07:57:21.647Z,100378.50
2022-12-06T07:59:49.842Z,100381.19
2022-12-06T08:02:21.347Z,100382.16
2022-12-06T08:04:51.185Z,100385.16
2022-12-06T08:07:19.991Z,100388.56
2022-12-06T08:09:48.483Z,100382.38
2022-12-06T08:12:17.199Z,100389.94
2022-12-06T08:14:45.827Z,100387.84
2022-12-06T08:17:14.159Z,100389.50
2022-12-06T08:19:43.248Z,100390.69
2022-12-06T08:22:12.962Z,100396.34
2022-12-06T08:24:41.181Z,100388.00
2022-12-06T08:27:09.436Z,100394.19
2022-12-06T08:29:38.194Z,100396.56
2022-12-06T08:32:07.176Z,100383.13
2022-12-06T08:34:35.986Z,100396.22
2022-12-06T08:37:04.388Z,100393.53
2022-12-06T08:39:34.458Z,100396.13
2022-12-06T08:42:03.849Z,100400.38
2022-12-06T08:44:34.382Z,100398.72
2022-12-06T08:47:03.385Z,100395.47
2022-12-06T08:49:31.973Z,100407.84
2022-12-06T08:52:00.693Z,100408.78
2022-12-06T08:54:29.555Z,100404.81
2022-12-06T08:56:59.504Z,100404.72
2022-12-06T08:59:27.745Z,100409.69
2022-12-06T09:01:56.312Z,100405.25
2022-12-06T09:04:24.968Z,100408.22
2022-12-06T09:06:53.508Z,100403.81
2022-12-06T09:09:21.892Z,100412.81
2022-12-06T09:11:51.719Z,100416.88
2022-12-06T09:14:22.609Z,100417.53
2022-12-06T09:16:52.249Z,100419.94
2022-12-06T09:19:22.153Z,100425.47
2022-12-06T09:21:50.393Z,100417.63
2022-12-06T09:24:20.084Z,100425.72
2022-12-06T09:26:49.047Z,100429.53
2022-12-06T09:29:18.923Z,100426.66
2022-12-06T09:31:49.063Z,100438.19
2022-12-06T09:34:17.926Z,100435.69
2022-12-06T09:36:51.679Z,100435.13
2022-12-06T09:39:24.562Z,100433.47
2022-12-06T09:42:29.996Z,100436.31
2022-12-06T09:45:20.681Z,100447.50
2022-12-06T09:48:16.268Z,100442.13
2022-12-06T09:50:58.586Z,100443.06
2022-12-06T09:53:44.630Z,100446.19
2022-12-06T09:56:21.831Z,100446.66
2022-12-06T09:59:04.167Z,100446.47
2022-12-06T10:01:52.484Z,100452.19
2022-12-06T10:04:48.044Z,100442.50
2022-12-06T10:07:26.584Z,100447.59
2022-12-06T10:10:12.599Z,100453.41
2022-12-06T10:12:59.887Z,100455.47
2022-12-06T10:15:46.937Z,100445.06
2022-12-06T10:18:50.763Z,100447.47
2022-12-06T10:21:35.804Z,100443.81
2022-12-06T10:24:19.385Z,100445.06
2022-12-06T10:26:52.254Z,100442.53
2022-12-06T10:29:29.178Z,100434.41
2022-12-06T10:32:00.822Z,100438.75
2022-12-06T10:34:49.420Z,100432.03
2022-12-06T10:37:42.517Z,100420.91
2022-12-06T10:40:18.713Z,100418.91
2022-12-06T10:42:53.494Z,100422.81
2022-12-06T10:45:47.068Z,100417.16
2022-12-06T10:48:23.180Z,100416.84
2022-12-06T10:51:00.270Z,100408.94
2022-12-06T10:53:36.162Z,100408.88
2022-12-06T10:56:13.699Z,100415.91
2022-12-06T10:58:51.157Z,100411.19
2022-12-06T11:01:23.687Z,100413.53
2022-12-06T11:04:00.797Z,100404.38
2022-12-06T11:06:34.918Z,100409.53
2022-12-06T11:09:14.816Z,100408.34
2022-12-06T11:11:45.301Z,100410.84
2022-12-06T11:14:24.652Z,100406.72
2022-12-06T11:16:58.853Z,100410.19
2022-12-06T11:19:34.944Z,100405.91
2022-12-06T11:22:17.511Z,100409.34
2022-12-06T11:24:57.644Z,100403.38
2022-12-06T11:27:34.916Z,100402.97
2022-12-06T11:30:04.875Z,100406.84
2022-12-06T11:32:33.112Z,100393.41
2022-12-06T11:35:02.684Z,100400.03
2022-12-06T11:37:36.068Z,100397.44
2022-12-06T11:40:21.217Z,100392.38
2022-12-06T11:42:50.109Z,100402.59
2022-12-06T11:45:26.285Z,100397.84
2022-12-06T11:47:55.908Z,100398.69
2022-12-06T11:50:26.843Z,100399.91
2022-12-06T11:53:00.662Z,100393.59
2022-12-06T11:55:35.876Z,100388.44
2022-12-06T11:58:13.082Z,100380.47
2022-12-06T12:01:02.054Z,100384.41
2022-12-06T12:03:33.570Z,100390.75
2022-12-06T12:06:30.875Z,100387.09
2022-12-06T12:09:05.002Z,100384.00
2022-12-06T12:11:40.252Z,100386.19
2022-12-06T12:14:19.358Z,100380.78
2022-12-06T12:16:54.581Z,100381.09
2022-12-06T12:19:35.520Z,100383.34
2022-12-06T12:22:25.110Z,100377.88
2022-12-06T12:27:50.277Z,100378.22
2022-12-06T12:30:37.697Z,100377.03
2022-12-06T12:33:27.676Z,100381.91
2022-12-06T12:36:17.888Z,100373.00
2022-12-06T12:38:54.998Z,100375.41
2022-12-06T12:41:33.214Z,100364.31
2022-12-06T12:44:48.262Z,100364.63
2022-12-06T12:46:58.374Z,100368.31
2022-12-06T12:49:31.487Z,100371.56
2022-12-06T12:52:01.152Z,100359.66
2022-12-06T12:54:33.525Z,100368.25
2022-12-06T12:57:08.460Z,100356.44
2022-12-06T12:59:41.811Z,100359.75
2022-12-06T13:02:22.471Z,100358.41
2022-12-06T13:05:11.106Z,100355.81
2022-12-06T13:07:46.150Z,100359.31
2022-12-06T13:10:23.147Z,100358.31
2022-12-06T13:12:55.782Z,100358.63
2022-12-06T13:15:34.859Z,100357.28
2022-12-06T13:18:12.373Z,100349.41
2022-12-06T13:20:42.221Z,100348.78
2022-12-06T13:23:16.266Z,100353.00
2022-12-06T13:25:51.561Z,100344.75
2022-12-06T13:28:27.509Z,100337.38
2022-12-06T13:31:02.730Z,100346.50
2022-12-06T13:33:36.017Z,100340.53
2022-12-06T13:36:10.378Z,100335.91
2022-12-06T13:38:40.383Z,100337.09
2022-12-06T13:41:13.335Z,100336.09
2022-12-06T13:43:52.016Z,100325.16
2022-12-06T13:46:33.378Z,100319.31
2022-12-06T13:49:27.110Z,100327.31
2022-12-06T13:51:55.324Z,100334.09
2022-12-06T13:54:33.822Z,100332.78
2022-12-06T13:57:23.936Z,100332.34
2022-12-06T13:59:52.633Z,100331.03
2022-12-06T14:02:53.265Z,100329.16
2022-12-06T14:06:04.073Z,100331.94
2022-12-06T14:08:43.855Z,100328.72
2022-12-06T14:11:23.961Z,100332.81
2022-12-06T14:14:03.643Z,100329.72
2022-12-06T14:16:39.404Z,100327.47
2022-12-06T14:19:19.724Z,100322.88
2022-12-06T14:21:56.254Z,100323.91
2022-12-06T14:24:31.610Z,100326.00
2022-12-06T14:27:13.064Z,100329.63
2022-12-06T14:29:42.598Z,100331.06
2022-12-06T14:32:11.932Z,100332.72
2022-12-06T14:34:41.784Z,100324.88
2022-12-06T14:37:22.313Z,100329.94
2022-12-06T14:39:53.694Z,100327.44
2022-12-06T14:42:40.506Z,100333.34
2022-12-06T14:45:17.059Z,100328.88
2022-12-06T14:47:46.524Z,100336.84
2022-12-06T14:50:46.118Z,100330.53
2022-12-06T14:53:16.936Z,100333.84
2022-12-06T14:55:58.573Z,100330.44
2022-12-06T14:58:29.376Z,100328.16
2022-12-06T15:01:02.467Z,100323.59
2022-12-06T15:03:33.888Z,100323.00
2022-12-06T15:06:28.939Z,100322.44
2022-12-06T15:09:14.551Z,100330.63
2022-12-06T15:12:02.510Z,100322.03
2022-12-06T15:14:49.009Z,100331.38
2022-12-06T15:17:20.329Z,100323.47
2022-12-06T15:19:50.623Z,100322.44
2022-12-06T15:22:25.268Z,100326.28
2022-12-06T15:24:56.513Z,100321.31
2022-12-06T15:27:26.799Z,100322.84
2022-12-06T15:29:55.280Z,100320.59
2022-12-06T15:32:26.108Z,100334.09
2022-12-06T15:34:55.057Z,100329.50
2022-12-06T15:37:42.107Z,100335.72
2022-12-06T15:40:16.514Z,100334.09
2022-12-06T15:42:44.667Z,100334.34
2022-12-06T15:45:17.115Z,100338.91
2022-12-06T15:47:46.279Z,100343.34
2022-12-06T15:50:15.909Z,100337.16
2022-12-06T15:52:45.547Z,100344.13
2022-12-06T15:55:18.114Z,100344.69
2022-12-06T15:57:46.792Z,100341.72
2022-12-06T16:00:16.049Z,100348.34
2022-12-06T16:02:44.295Z,100348.97
2022-12-06T16:05:16.287Z,100346.41
2022-12-06T16:07:45.964Z,100341.44
2022-12-06T16:10:19.136Z,100346.56
2022-12-06T16:13:08.065Z,100344.56
2022-12-06T16:15:36.605Z,100346.31
2022-12-06T16:18:05.164Z,100342.72
2022-12-06T16:20:33.652Z,100342.88
2022-12-06T16:23:24.598Z,100341.94
2022-12-06T16:25:53.036Z,100346.06
2022-12-06T16:28:21.213Z,100338.91
2022-12-06T16:30:49.416Z,100354.34
2022-12-06T16:33:20.443Z,100357.31
2022-12-06T16:35:49.266Z,100353.38
2022-12-06T16:38:19.782Z,100352.47
2022-12-06T16:40:49.017Z,100352.47
2022-12-06T16:43:17.256Z,100346.72
2022-12-06T16:45:47.401Z,100354.22
2022-12-06T16:48:19.304Z,100350.94
2022-12-06T16:50:48.601Z,100352.75
2022-12-06T16:53:19.258Z,100346.47
2022-12-06T16:55:47.570Z,100354.03
2022-12-06T16:58:19.929Z,100347.50
2022-12-06T17:00:48.654Z,100345.69
2022-12-06T17:03:17.934Z,100333.81
2022-12-06T17:05:47.400Z,100328.25
2022-12-06T17:08:21.914Z,100332.25
2022-12-06T17:11:13.591Z,100332.66
2022-12-06T17:13:42.000Z,100338.72
2022-12-06T17:16:11.034Z,100343.53
2022-12-06T17:18:40.242Z,100337.31
2022-12-06T17:21:13.164Z,100339.81
2022-12-06T17:23:47.290Z,100334.81
2022-12-06T17:26:19.918Z,100331.19
2022-12-06T17:28:49.900Z,100329.69
2022-12-06T17:31:19.705Z,100323.06
2022-12-06T17:33:49.405Z,100322.34
2022-12-06T17:36:24.929Z,100314.25
2022-12-06T17:38:54.228Z,100319.81
2022-12-06T17:41:48.412Z,100322.59
2022-12-06T17:44:19.919Z,100324.47
2022-12-06T17:46:48.720Z,100322.81
2022-12-06T17:49:21.555Z,100322.00
2022-12-06T17:51:50.424Z,100315.53
2022-12-06T17:54:21.596Z,100320.69
2022-12-06T17:56:53.099Z,100316.28
2022-12-06T17:59:23.453Z,100309.78
2022-12-06T18:04:43.849Z,100319.81
2022-12-06T18:07:13.449Z,100312.00
2022-12-06T18:09:42.997Z,100308.97
2022-12-06T18:12:19.976Z,100306.69
2022-12-06T18:14:50.604Z,100314.22
2022-12-06T18:17:21.240Z,100310.16
2022-12-06T18:19:51.401Z,100311.97
2022-12-06T18:22:20.704Z,100313.09
2022-12-06T18:24:49.012Z,100319.81
2022-12-06T18:27:18.728Z,100315.13
2022-12-06T18:29:46.998Z,100317.88
2022-12-06T18:32:15.437Z,100310.97
2022-12-06T18:34:44.003Z,100308.56
2022-12-06T18:37:12.280Z,100311.94
2022-12-06T18:39:40.589Z,100304.44
2022-12-06T18:42:09.127Z,100299.69
2022-12-06T18:44:38.999Z,100305.41
2022-12-06T18:47:07.876Z,100298.22
2022-12-06T18:49:36.425Z,100306.91
2022-12-06T18:52:04.708Z,100315.72
2022-12-06T18:54:32.977Z,100307.31
2022-12-06T18:57:01.278Z,100311.75
2022-12-06T18:59:29.723Z,100312.44
2022-12-06T19:02:00.066Z,100313.88
2022-12-06T19:04:28.694Z,100316.28
2022-12-06T19:06:57.162Z,100312.41
2022-12-06T19:09:25.409Z,100308.28
2022-12-06T19:11:53.796Z,100318.03
2022-12-06T19:14:23.163Z,100305.50
2022-12-06T19:16:53.109Z,100306.53
2022-12-06T19:19:24.934Z,100311.56
2022-12-06T19:21:55.600Z,100304.59
2022-12-06T19:24:26.870Z,100301.69
2022-12-06T19:26:58.051Z,100303.34
2022-12-06T19:29:27.660Z,100299.31
2022-12-06T19:31:56.410Z,100296.50
2022-12-06T19:34:30.224Z,100304.81
2022-12-06T19:36:58.475Z,100305.69
2022-12-06T19:39:28.322Z,100298.53
2022-12-06T19:42:14.377Z,100302.50
2022-12-06T19:44:43.889Z,100298.44
2022-12-06T19:47:13.813Z,100292.97
2022-12-06T19:49:43.468Z,100300.44
2022-12-06T19:52:11.796Z,100294.63
2022-12-06T19:54:41.657Z,100297.94
2022-12-06T19:57:09.969Z,100302.22
2022-12-06T19:59:40.499Z,100297.13
2022-12-06T20:02:12.379Z,100296.09
2022-12-06T20:04:43.954Z,100294.50
2022-12-06T20:07:12.222Z,100296.19
2022-12-06T20:09:40.624Z,100296.53
2022-12-06T20:12:23.708Z,100301.09
2022-12-06T20:14:55.105Z,100295.75
2022-12-06T20:17:24.541Z,100291.75
2022-12-06T20:19:54.678Z,100287.78
2022-12-06T20:22:22.944Z,100285.56
2022-12-06T20:24:51.911Z,100288.22
2022-12-06T20:27:40.756Z,100280.94
2022-12-06T20:30:11.085Z,100284.06
2022-12-06T20:32:40.395Z,100281.50
2022-12-06T20:35:10.781Z,100279.41
2022-12-06T20:37:39.298Z,100285.69
2022-12-06T20:40:10.724Z,100277.59
2022-12-06T20:42:39.512Z,100282.22
2022-12-06T20:45:09.545Z,100287.69
2022-12-06T20:47:37.745Z,100273.34
2022-12-06T20:50:07.653Z,100276.75
2022-12-06T20:52:37.416Z,100261.84
2022-12-06T20:55:06.527Z,100274.00
2022-12-06T20:57:35.548Z,100265.63
2022-12-06T21:00:07.585Z,100266.56
2022-12-06T21:02:36.605Z,100269.34
2022-12-06T21:05:05.803Z,100263.97
2022-12-06T21:07:34.458Z,100268.94
2022-12-06T21:10:04.564Z,100249.53
2022-12-06T21:12:32.998Z,100252.09
2022-12-06T21:15:01.153Z,100254.50
2022-12-06T21:17:32.703Z,100247.84
2022-12-06T21:20:01.446Z,100252.00
2022-12-06T21:22:29.937Z,100248.59
2022-12-06T21:24:58.103Z,100247.53
2022-12-06T21:27:29.897Z,100245.47
2022-12-06T21:30:01.640Z,100254.44
2022-12-06T21:32:32.323Z,100260.72
2022-12-06T21:35:00.927Z,100252.09
2022-12-06T21:37:31.257Z,100262.13
2022-12-06T21:40:00.057Z,100255.50
2022-12-06T21:42:30.464Z,100265.53
2022-12-06T21:45:00.003Z,100250.09
2022-12-06T21:47:28.595Z,100260.19
2022-12-06T21:49:58.233Z,100257.53
2022-12-06T21:52:27.772Z,100267.22
2022-12-06T21:54:56.974Z,100263.72
2022-12-06T21:57:25.280Z,100261.78
2022-12-06T21:59:55.120Z,100261.13
2022-12-06T22:02:23.382Z,100262.41
2022-12-06T22:04:52.180Z,100255.97
2022-12-06T22:07:20.400Z,100263.63
2022-12-06T22:09:48.587Z,100264.69
2022-12-06T22:12:16.869Z,100273.31
2022-12-06T22:14:45.054Z,100269.31
2022-12-06T22:17:14.796Z,100275.63
2022-12-06T22:19:42.983Z,100279.84
2022-12-06T22:22:11.454Z,100282.38
2022-12-06T22:24:39.775Z,100274.03
2022-12-06T22:27:08.201Z,100273.63
2022-12-06T22:29:36.525Z,100274.50
2022-12-06T22:32:05.081Z,100276.44
2022-12-06T22:34:35.096Z,100273.97
2022-12-06T22:37:04.398Z,100275.97
2022-12-06T22:39:32.907Z,100276.75
2022-12-06T22:42:01.440Z,100276.16
2022-12-06T22:44:29.703Z,100281.31
2022-12-06T22:46:58.489Z,100269.03
2022-12-06T22:49:27.191Z,100266.22
2022-12-06T22:51:57.014Z,100266.75
2022-12-06T22:54:25.226Z,100273.06
2022-12-06T22:56:54.255Z,100265.63
2022-12-06T22:59:22.651Z,100264.75
2022-12-06T23:01:51.263Z,100270.16
2022-12-06T23:04:19.995Z,100265.09
2022-12-06T23:06:48.200Z,100261.88
2022-12-06T23:09:18.290Z,100265.81
2022-12-06T23:11:48.259Z,100262.31
2022-12-06T23:14:16.513Z,100266.47
2022-12-06T23:16:45.388Z,100269.56
2022-12-06T23:19:17.067Z,100264.59
2022-12-06T23:21:53.671Z,100273.81
2022-12-06T23:24:23.772Z,100267.81
2022-12-06T23:26:57.739Z,100263.75
2022-12-06T23:29:27.040Z,100265.69
2022-12-06T23:31:58.702Z,100265.31
2022-12-06T23:34:30.044Z,100266.88
2022-12-06T23:36:58.463Z,100262.22
2022-12-06T23:39:28.142Z,100261.78
2022-12-06T23:41:56.488Z,100265.53
2022-12-06T23:44:25.174Z,100255.19
2022-12-06T23:46:53.996Z,100251.25
2022-12-06T23:49:23.155Z,100253.63
2022-12-06T23:51:51.675Z,100250.00
2022-12-06T23:54:20.326Z,100255.59
2022-12-06T23:56:49.983Z,100253.53
2022-12-06T23:59:19.112Z,100239.22
